sensor_id;sensor_type;location;lat;lon;timestamp;P1;durP1;ratioP1;P2;durP2;ratioP2
75768;SDS011;64379;48.888;8.330;2022-10-16T00:02:23;2.63;;;0.70;;
75768;SDS011;64379;48.888;8.330;2022-10-16T00:04:49;4.35;;;0.75;;
75768;SDS011;64379;48.888;8.330;2022-10-16T00:07:15;4.65;;;0.80;;
75768;SDS011;64379;48.888;8.330;2022-10-16T00:09:40;1.77;;;0.70;;
75768;SDS011;64379;48.888;8.330;2022-10-16T00:12:06;0.63;;;0.50;;
75768;SDS011;64379;48.888;8.330;2022-10-16T00:14:32;1.30;;;0.52;;
75768;SDS011;64379;48.888;8.330;2022-10-16T00:16:58;1.33;;;0.70;;
75768;SDS011;64379;48.888;8.330;2022-10-16T00:19:23;0.60;;;0.35;;
75768;SDS011;64379;48.888;8.330;2022-10-16T00:21:49;0.60;;;0.43;;
75768;SDS011;64379;48.888;8.330;2022-10-16T00:24:15;3.67;;;0.60;;
75768;SDS011;64379;48.888;8.330;2022-10-16T00:26:40;0.77;;;0.43;;
75768;SDS011;64379;48.888;8.330;2022-10-16T00:29:06;2.13;;;0.80;;
75768;SDS011;64379;48.888;8.330;2022-10-16T00:31:33;5.50;;;0.60;;
75768;SDS011;64379;48.888;8.330;2022-10-16T00:33:58;0.88;;;0.50;;
75768;SDS011;64379;48.888;8.330;2022-10-16T00:36:26;3.22;;;1.05;;
75768;SDS011;64379;48.888;8.330;2022-10-16T00:38:52;2.03;;;0.60;;
75768;SDS011;64379;48.888;8.330;2022-10-16T00:41:20;1.10;;;0.60;;
75768;SDS011;64379;48.888;8.330;2022-10-16T00:43:48;3.15;;;0.90;;
75768;SDS011;64379;48.888;8.330;2022-10-16T00:46:18;1.00;;;0.70;;
75768;SDS011;64379;48.888;8.330;2022-10-16T00:49:03;1.17;;;0.50;;
75768;SDS011;64379;48.888;8.330;2022-10-16T00:51:33;3.38;;;0.73;;
75768;SDS011;64379;48.888;8.330;2022-10-16T00:54:04;0.55;;;0.43;;
75768;SDS011;64379;48.888;8.330;2022-10-16T00:56:34;1.00;;;0.63;;
75768;SDS011;64379;48.888;8.330;2022-10-16T00:59:01;1.02;;;0.52;;
75768;SDS011;64379;48.888;8.330;2022-10-16T01:01:31;0.80;;;0.50;;
75768;SDS011;64379;48.888;8.330;2022-10-16T01:03:57;1.40;;;0.57;;
75768;SDS011;64379;48.888;8.330;2022-10-16T01:06:24;3.00;;;0.82;;
75768;SDS011;64379;48.888;8.330;2022-10-16T01:14:14;3.50;;;0.80;;
75768;SDS011;64379;48.888;8.330;2022-10-16T01:17:17;2.38;;;0.90;;
75768;SDS011;64379;48.888;8.330;2022-10-16T01:19:56;2.45;;;0.60;;
75768;SDS011;64379;48.888;8.330;2022-10-16T01:22:33;0.35;;;0.35;;
75768;SDS011;64379;48.888;8.330;2022-10-16T01:25:19;4.25;;;0.60;;
75768;SDS011;64379;48.888;8.330;2022-10-16T01:28:08;2.63;;;0.70;;
75768;SDS011;64379;48.888;8.330;2022-10-16T01:30:37;7.93;;;0.93;;
75768;SDS011;64379;48.888;8.330;2022-10-16T01:35:40;2.67;;;0.63;;
75768;SDS011;64379;48.888;8.330;2022-10-16T01:38:19;2.20;;;0.80;;
75768;SDS011;64379;48.888;8.330;2022-10-16T01:40:51;4.35;;;0.77;;
75768;SDS011;64379;48.888;8.330;2022-10-16T01:43:31;0.88;;;0.55;;
75768;SDS011;64379;48.888;8.330;2022-10-16T01:46:00;3.60;;;0.90;;
75768;SDS011;64379;48.888;8.330;2022-10-16T01:48:30;0.60;;;0.50;;
75768;SDS011;64379;48.888;8.330;2022-10-16T01:51:00;3.42;;;0.80;;
75768;SDS011;64379;48.888;8.330;2022-10-16T01:53:31;3.17;;;0.90;;
75768;SDS011;64379;48.888;8.330;2022-10-16T01:55:58;1.25;;;0.70;;
75768;SDS011;64379;48.888;8.330;2022-10-16T01:58:25;1.17;;;0.60;;
75768;SDS011;64379;48.888;8.330;2022-10-16T02:00:56;3.38;;;0.60;;
75768;SDS011;64379;48.888;8.330;2022-10-16T02:03:22;3.38;;;0.80;;
75768;SDS011;64379;48.888;8.330;2022-10-16T02:05:51;1.08;;;0.70;;
75768;SDS011;64379;48.888;8.330;2022-10-16T02:08:19;4.65;;;0.80;;
75768;SDS011;64379;48.888;8.330;2022-10-16T02:10:55;0.80;;;0.40;;
75768;SDS011;64379;48.888;8.330;2022-10-16T02:13:44;2.25;;;0.80;;
75768;SDS011;64379;48.888;8.330;2022-10-16T02:16:13;1.63;;;0.80;;
75768;SDS011;64379;48.888;8.330;2022-10-16T02:18:39;1.58;;;0.80;;
75768;SDS011;64379;48.888;8.330;2022-10-16T02:23:57;6.32;;;0.80;;
75768;SDS011;64379;48.888;8.330;2022-10-16T02:26:40;4.40;;;0.73;;
75768;SDS011;64379;48.888;8.330;2022-10-16T02:29:16;2.40;;;0.75;;
75768;SDS011;64379;48.888;8.330;2022-10-16T02:31:46;3.53;;;0.63;;
75768;SDS011;64379;48.888;8.330;2022-10-16T02:34:16;2.90;;;0.95;;
75768;SDS011;64379;48.888;8.330;2022-10-16T02:36:44;0.95;;;0.50;;
75768;SDS011;64379;48.888;8.330;2022-10-16T02:39:11;1.15;;;0.55;;
75768;SDS011;64379;48.888;8.330;2022-10-16T02:41:38;5.25;;;0.90;;
75768;SDS011;64379;48.888;8.330;2022-10-16T02:44:03;4.43;;;1.00;;
75768;SDS011;64379;48.888;8.330;2022-10-16T02:46:29;6.22;;;0.85;;
75768;SDS011;64379;48.888;8.330;2022-10-16T02:48:55;1.50;;;0.70;;
75768;SDS011;64379;48.888;8.330;2022-10-16T02:51:20;1.42;;;0.63;;
75768;SDS011;64379;48.888;8.330;2022-10-16T02:53:46;1.30;;;0.93;;
75768;SDS011;64379;48.888;8.330;2022-10-16T02:56:11;5.25;;;0.95;;
75768;SDS011;64379;48.888;8.330;2022-10-16T02:58:37;1.90;;;0.80;;
75768;SDS011;64379;48.888;8.330;2022-10-16T03:01:02;4.55;;;0.65;;
75768;SDS011;64379;48.888;8.330;2022-10-16T03:03:28;1.95;;;0.95;;
75768;SDS011;64379;48.888;8.330;2022-10-16T03:05:54;3.13;;;0.85;;
75768;SDS011;64379;48.888;8.330;2022-10-16T03:08:19;6.32;;;0.85;;
75768;SDS011;64379;48.888;8.330;2022-10-16T03:10:48;2.90;;;0.50;;
75768;SDS011;64379;48.888;8.330;2022-10-16T03:13:14;2.70;;;0.40;;
75768;SDS011;64379;48.888;8.330;2022-10-16T03:15:40;0.93;;;0.70;;
75768;SDS011;64379;48.888;8.330;2022-10-16T03:18:06;4.32;;;0.47;;
75768;SDS011;64379;48.888;8.330;2022-10-16T03:20:31;1.00;;;0.70;;
75768;SDS011;64379;48.888;8.330;2022-10-16T03:22:58;1.27;;;0.73;;
75768;SDS011;64379;48.888;8.330;2022-10-16T03:25:23;2.08;;;0.60;;
75768;SDS011;64379;48.888;8.330;2022-10-16T03:27:49;5.50;;;1.00;;
75768;SDS011;64379;48.888;8.330;2022-10-16T03:30:14;1.88;;;0.80;;
75768;SDS011;64379;48.888;8.330;2022-10-16T03:32:41;3.55;;;0.47;;
75768;SDS011;64379;48.888;8.330;2022-10-16T03:35:07;1.08;;;0.38;;
75768;SDS011;64379;48.888;8.330;2022-10-16T03:37:32;0.73;;;0.50;;
75768;SDS011;64379;48.888;8.330;2022-10-16T03:40:00;2.85;;;0.70;;
75768;SDS011;64379;48.888;8.330;2022-10-16T03:42:26;1.35;;;0.50;;
75768;SDS011;64379;48.888;8.330;2022-10-16T03:44:51;0.98;;;0.30;;
75768;SDS011;64379;48.888;8.330;2022-10-16T03:47:17;2.80;;;0.60;;
75768;SDS011;64379;48.888;8.330;2022-10-16T03:49:46;4.70;;;1.10;;
75768;SDS011;64379;48.888;8.330;2022-10-16T03:52:19;1.60;;;0.80;;
75768;SDS011;64379;48.888;8.330;2022-10-16T03:54:44;0.85;;;0.63;;
75768;SDS011;64379;48.888;8.330;2022-10-16T03:57:10;2.00;;;0.52;;
75768;SDS011;64379;48.888;8.330;2022-10-16T03:59:36;3.70;;;1.08;;
75768;SDS011;64379;48.888;8.330;2022-10-16T04:02:01;2.50;;;1.00;;
75768;SDS011;64379;48.888;8.330;2022-10-16T04:04:27;2.05;;;0.60;;
75768;SDS011;64379;48.888;8.330;2022-10-16T04:06:53;2.30;;;0.73;;
75768;SDS011;64379;48.888;8.330;2022-10-16T04:09:18;6.80;;;1.10;;
75768;SDS011;64379;48.888;8.330;2022-10-16T04:11:44;0.55;;;0.40;;
75768;SDS011;64379;48.888;8.330;2022-10-16T04:14:10;3.78;;;0.88;;
75768;SDS011;64379;48.888;8.330;2022-10-16T04:16:35;2.45;;;0.70;;
75768;SDS011;64379;48.888;8.330;2022-10-16T04:19:01;5.38;;;0.73;;
75768;SDS011;64379;48.888;8.330;2022-10-16T04:21:27;1.35;;;0.70;;
75768;SDS011;64379;48.888;8.330;2022-10-16T04:23:52;1.63;;;0.90;;
75768;SDS011;64379;48.888;8.330;2022-10-16T04:26:20;0.68;;;0.50;;
75768;SDS011;64379;48.888;8.330;2022-10-16T04:28:45;1.05;;;0.70;;
75768;SDS011;64379;48.888;8.330;2022-10-16T04:31:11;1.30;;;0.60;;
75768;SDS011;64379;48.888;8.330;2022-10-16T04:33:37;5.47;;;0.90;;
75768;SDS011;64379;48.888;8.330;2022-10-16T04:36:04;1.95;;;0.80;;
75768;SDS011;64379;48.888;8.330;2022-10-16T04:38:30;1.70;;;0.88;;
75768;SDS011;64379;48.888;8.330;2022-10-16T04:40:56;2.80;;;0.80;;
75768;SDS011;64379;48.888;8.330;2022-10-16T04:43:21;0.73;;;0.60;;
75768;SDS011;64379;48.888;8.330;2022-10-16T04:45:50;1.17;;;0.73;;
75768;SDS011;64379;48.888;8.330;2022-10-16T04:48:16;4.00;;;1.20;;
75768;SDS011;64379;48.888;8.330;2022-10-16T04:50:42;2.17;;;1.08;;
75768;SDS011;64379;48.888;8.330;2022-10-16T04:53:08;14.15;;;1.20;;
75768;SDS011;64379;48.888;8.330;2022-10-16T04:55:34;0.73;;;0.60;;
75768;SDS011;64379;48.888;8.330;2022-10-16T04:58:00;3.13;;;0.98;;
75768;SDS011;64379;48.888;8.330;2022-10-16T05:00:25;4.75;;;0.80;;
75768;SDS011;64379;48.888;8.330;2022-10-16T05:02:51;3.38;;;1.00;;
75768;SDS011;64379;48.888;8.330;2022-10-16T05:05:17;2.78;;;1.02;;
75768;SDS011;64379;48.888;8.330;2022-10-16T05:07:44;4.32;;;0.90;;
75768;SDS011;64379;48.888;8.330;2022-10-16T05:10:11;4.30;;;0.88;;
75768;SDS011;64379;48.888;8.330;2022-10-16T05:12:36;3.80;;;1.00;;
75768;SDS011;64379;48.888;8.330;2022-10-16T05:15:02;3.40;;;0.70;;
75768;SDS011;64379;48.888;8.330;2022-10-16T05:17:28;2.28;;;0.90;;
75768;SDS011;64379;48.888;8.330;2022-10-16T05:19:54;4.60;;;0.90;;
75768;SDS011;64379;48.888;8.330;2022-10-16T05:22:19;4.35;;;0.70;;
75768;SDS011;64379;48.888;8.330;2022-10-16T05:24:45;3.65;;;1.00;;
75768;SDS011;64379;48.888;8.330;2022-10-16T05:27:10;2.47;;;0.90;;
75768;SDS011;64379;48.888;8.330;2022-10-16T05:29:43;5.28;;;0.98;;
75768;SDS011;64379;48.888;8.330;2022-10-16T05:32:16;9.45;;;1.00;;
75768;SDS011;64379;48.888;8.330;2022-10-16T05:34:45;2.80;;;0.70;;
75768;SDS011;64379;48.888;8.330;2022-10-16T05:37:11;9.60;;;0.98;;
75768;SDS011;64379;48.888;8.330;2022-10-16T05:39:37;2.70;;;0.85;;
75768;SDS011;64379;48.888;8.330;2022-10-16T05:42:04;1.55;;;0.60;;
75768;SDS011;64379;48.888;8.330;2022-10-16T05:44:30;2.78;;;0.70;;
75768;SDS011;64379;48.888;8.330;2022-10-16T05:46:56;2.40;;;0.95;;
75768;SDS011;64379;48.888;8.330;2022-10-16T05:49:21;2.58;;;0.82;;
75768;SDS011;64379;48.888;8.330;2022-10-16T05:51:47;6.35;;;1.08;;
75768;SDS011;64379;48.888;8.330;2022-10-16T05:54:12;6.47;;;0.80;;
75768;SDS011;64379;48.888;8.330;2022-10-16T05:56:41;1.25;;;0.60;;
75768;SDS011;64379;48.888;8.330;2022-10-16T05:59:06;5.07;;;0.90;;
75768;SDS011;64379;48.888;8.330;2022-10-16T06:01:32;1.35;;;0.70;;
75768;SDS011;64379;48.888;8.330;2022-10-16T06:03:58;4.25;;;1.00;;
75768;SDS011;64379;48.888;8.330;2022-10-16T06:06:25;1.30;;;0.68;;
75768;SDS011;64379;48.888;8.330;2022-10-16T06:08:53;0.98;;;0.63;;
75768;SDS011;64379;48.888;8.330;2022-10-16T06:14:55;1.90;;;0.90;;
75768;SDS011;64379;48.888;8.330;2022-10-16T06:17:23;5.88;;;0.82;;
75768;SDS011;64379;48.888;8.330;2022-10-16T06:20:07;2.97;;;0.70;;
75768;SDS011;64379;48.888;8.330;2022-10-16T06:22:52;2.55;;;1.05;;
75768;SDS011;64379;48.888;8.330;2022-10-16T06:25:20;1.65;;;0.80;;
75768;SDS011;64379;48.888;8.330;2022-10-16T06:28:06;3.53;;;1.00;;
75768;SDS011;64379;48.888;8.330;2022-10-16T06:30:47;6.05;;;1.00;;
75768;SDS011;64379;48.888;8.330;2022-10-16T06:33:12;4.13;;;1.20;;
75768;SDS011;64379;48.888;8.330;2022-10-16T06:35:53;2.78;;;1.30;;
75768;SDS011;64379;48.888;8.330;2022-10-16T06:38:19;3.30;;;1.33;;
75768;SDS011;64379;48.888;8.330;2022-10-16T06:40:44;12.35;;;1.90;;
75768;SDS011;64379;48.888;8.330;2022-10-16T06:43:10;7.60;;;2.00;;
75768;SDS011;64379;48.888;8.330;2022-10-16T06:45:35;10.00;;;2.35;;
75768;SDS011;64379;48.888;8.330;2022-10-16T06:48:02;6.90;;;2.45;;
75768;SDS011;64379;48.888;8.330;2022-10-16T06:50:27;6.65;;;2.00;;
75768;SDS011;64379;48.888;8.330;2022-10-16T06:52:53;6.00;;;1.80;;
75768;SDS011;64379;48.888;8.330;2022-10-16T06:55:22;5.70;;;2.03;;
75768;SDS011;64379;48.888;8.330;2022-10-16T06:57:47;4.30;;;1.50;;
75768;SDS011;64379;48.888;8.330;2022-10-16T07:00:13;1.88;;;0.93;;
75768;SDS011;64379;48.888;8.330;2022-10-16T07:02:39;6.93;;;1.20;;
75768;SDS011;64379;48.888;8.330;2022-10-16T07:05:05;5.10;;;1.02;;
75768;SDS011;64379;48.888;8.330;2022-10-16T07:07:30;3.47;;;1.10;;
75768;SDS011;64379;48.888;8.330;2022-10-16T07:09:56;4.90;;;1.23;;
75768;SDS011;64379;48.888;8.330;2022-10-16T07:12:21;8.25;;;1.17;;
75768;SDS011;64379;48.888;8.330;2022-10-16T07:14:47;3.92;;;1.10;;
75768;SDS011;64379;48.888;8.330;2022-10-16T07:17:13;5.10;;;1.10;;
75768;SDS011;64379;48.888;8.330;2022-10-16T07:19:45;4.25;;;1.00;;
75768;SDS011;64379;48.888;8.330;2022-10-16T07:22:11;8.85;;;1.20;;
75768;SDS011;64379;48.888;8.330;2022-10-16T07:24:37;1.98;;;0.98;;
75768;SDS011;64379;48.888;8.330;2022-10-16T07:27:02;5.05;;;1.33;;
75768;SDS011;64379;48.888;8.330;2022-10-16T07:29:30;5.43;;;1.10;;
75768;SDS011;64379;48.888;8.330;2022-10-16T07:31:56;1.42;;;0.80;;
75768;SDS011;64379;48.888;8.330;2022-10-16T07:34:24;1.50;;;0.93;;
75768;SDS011;64379;48.888;8.330;2022-10-16T07:36:53;3.97;;;1.02;;
75768;SDS011;64379;48.888;8.330;2022-10-16T07:39:18;5.18;;;1.20;;
75768;SDS011;64379;48.888;8.330;2022-10-16T07:41:44;1.80;;;1.00;;
75768;SDS011;64379;48.888;8.330;2022-10-16T07:44:12;6.20;;;1.30;;
75768;SDS011;64379;48.888;8.330;2022-10-16T07:46:38;1.35;;;0.88;;
75768;SDS011;64379;48.888;8.330;2022-10-16T07:49:04;1.63;;;0.93;;
75768;SDS011;64379;48.888;8.330;2022-10-16T07:51:29;9.65;;;1.73;;
75768;SDS011;64379;48.888;8.330;2022-10-16T07:53:55;1.92;;;1.02;;
75768;SDS011;64379;48.888;8.330;2022-10-16T07:56:21;14.13;;;2.00;;
75768;SDS011;64379;48.888;8.330;2022-10-16T07:58:47;3.90;;;1.10;;
75768;SDS011;64379;48.888;8.330;2022-10-16T08:01:15;1.60;;;0.90;;
75768;SDS011;64379;48.888;8.330;2022-10-16T08:03:41;1.80;;;1.02;;
75768;SDS011;64379;48.888;8.330;2022-10-16T08:06:11;2.17;;;0.77;;
75768;SDS011;64379;48.888;8.330;2022-10-16T08:08:36;7.97;;;1.13;;
75768;SDS011;64379;48.888;8.330;2022-10-16T08:11:02;4.93;;;1.20;;
75768;SDS011;64379;48.888;8.330;2022-10-16T08:15:56;1.10;;;0.80;;
75768;SDS011;64379;48.888;8.330;2022-10-16T08:18:21;1.48;;;0.70;;
75768;SDS011;64379;48.888;8.330;2022-10-16T08:20:47;12.32;;;1.30;;
75768;SDS011;64379;48.888;8.330;2022-10-16T08:23:13;4.43;;;0.80;;
75768;SDS011;64379;48.888;8.330;2022-10-16T08:25:39;10.55;;;1.65;;
75768;SDS011;64379;48.888;8.330;2022-10-16T08:28:06;1.52;;;0.80;;
75768;SDS011;64379;48.888;8.330;2022-10-16T08:30:34;3.08;;;0.80;;
75768;SDS011;64379;48.888;8.330;2022-10-16T08:33:00;1.58;;;0.80;;
75768;SDS011;64379;48.888;8.330;2022-10-16T08:35:26;3.80;;;1.13;;
75768;SDS011;64379;48.888;8.330;2022-10-16T08:37:52;3.70;;;0.80;;
75768;SDS011;64379;48.888;8.330;2022-10-16T08:48:46;2.63;;;0.93;;
75768;SDS011;64379;48.888;8.330;2022-10-16T08:51:36;5.65;;;0.90;;
75768;SDS011;64379;48.888;8.330;2022-10-16T08:54:03;1.95;;;0.90;;
75768;SDS011;64379;48.888;8.330;2022-10-16T08:56:29;1.42;;;0.65;;
75768;SDS011;64379;48.888;8.330;2022-10-16T08:58:57;3.90;;;0.82;;
75768;SDS011;64379;48.888;8.330;2022-10-16T09:01:23;2.17;;;0.80;;
75768;SDS011;64379;48.888;8.330;2022-10-16T09:04:14;5.00;;;0.93;;
75768;SDS011;64379;48.888;8.330;2022-10-16T09:18:12;3.25;;;1.00;;
75768;SDS011;64379;48.888;8.330;2022-10-16T09:23:52;3.00;;;0.93;;
75768;SDS011;64379;48.888;8.330;2022-10-16T09:26:24;1.63;;;0.90;;
75768;SDS011;64379;48.888;8.330;2022-10-16T09:28:52;3.80;;;1.15;;
75768;SDS011;64379;48.888;8.330;2022-10-16T09:31:19;4.60;;;1.10;;
75768;SDS011;64379;48.888;8.330;2022-10-16T09:33:53;2.28;;;1.00;;
75768;SDS011;64379;48.888;8.330;2022-10-16T09:36:31;1.40;;;0.80;;
75768;SDS011;64379;48.888;8.330;2022-10-16T09:39:05;3.28;;;1.20;;
75768;SDS011;64379;48.888;8.330;2022-10-16T09:41:34;2.05;;;0.90;;
75768;SDS011;64379;48.888;8.330;2022-10-16T09:44:02;7.35;;;0.93;;
75768;SDS011;64379;48.888;8.330;2022-10-16T09:46:40;2.10;;;0.93;;
75768;SDS011;64379;48.888;8.330;2022-10-16T09:49:19;3.45;;;1.20;;
75768;SDS011;64379;48.888;8.330;2022-10-16T09:51:45;4.63;;;1.10;;
75768;SDS011;64379;48.888;8.330;2022-10-16T09:54:14;5.95;;;1.20;;
75768;SDS011;64379;48.888;8.330;2022-10-16T09:56:43;3.58;;;0.93;;
75768;SDS011;64379;48.888;8.330;2022-10-16T09:59:20;5.57;;;1.40;;
75768;SDS011;64379;48.888;8.330;2022-10-16T10:01:52;2.45;;;0.95;;
75768;SDS011;64379;48.888;8.330;2022-10-16T10:04:20;6.20;;;1.20;;
75768;SDS011;64379;48.888;8.330;2022-10-16T10:06:48;1.52;;;1.05;;
75768;SDS011;64379;48.888;8.330;2022-10-16T10:11:54;4.18;;;1.67;;
75768;SDS011;64379;48.888;8.330;2022-10-16T10:17:06;4.90;;;2.15;;
75768;SDS011;64379;48.888;8.330;2022-10-16T10:27:50;3.75;;;1.67;;
75768;SDS011;64379;48.888;8.330;2022-10-16T10:30:48;4.00;;;1.83;;
75768;SDS011;64379;48.888;8.330;2022-10-16T10:33:23;5.55;;;0.88;;
75768;SDS011;64379;48.888;8.330;2022-10-16T10:41:06;9.75;;;1.15;;
75768;SDS011;64379;48.888;8.330;2022-10-16T10:43:44;5.40;;;1.00;;
75768;SDS011;64379;48.888;8.330;2022-10-16T10:46:35;3.83;;;0.95;;
75768;SDS011;64379;48.888;8.330;2022-10-16T10:52:12;5.22;;;1.08;;
75768;SDS011;64379;48.888;8.330;2022-10-16T10:55:09;3.45;;;0.90;;
75768;SDS011;64379;48.888;8.330;2022-10-16T11:00:47;3.40;;;1.10;;
75768;SDS011;64379;48.888;8.330;2022-10-16T11:05:52;2.33;;;0.88;;
75768;SDS011;64379;48.888;8.330;2022-10-16T11:08:28;5.95;;;1.00;;
75768;SDS011;64379;48.888;8.330;2022-10-16T11:11:04;2.25;;;0.90;;
75768;SDS011;64379;48.888;8.330;2022-10-16T11:13:42;4.25;;;1.00;;
75768;SDS011;64379;48.888;8.330;2022-10-16T11:16:28;5.38;;;0.90;;
75768;SDS011;64379;48.888;8.330;2022-10-16T11:27:58;2.60;;;1.00;;
75768;SDS011;64379;48.888;8.330;2022-10-16T11:30:29;2.17;;;0.98;;
75768;SDS011;64379;48.888;8.330;2022-10-16T11:33:09;1.75;;;1.00;;
75768;SDS011;64379;48.888;8.330;2022-10-16T11:35:48;5.30;;;1.08;;
75768;SDS011;64379;48.888;8.330;2022-10-16T11:41:08;2.60;;;1.17;;
75768;SDS011;64379;48.888;8.330;2022-10-16T11:43:45;3.92;;;1.00;;
75768;SDS011;64379;48.888;8.330;2022-10-16T11:46:38;3.15;;;0.93;;
75768;SDS011;64379;48.888;8.330;2022-10-16T11:49:15;2.40;;;1.00;;
75768;SDS011;64379;48.888;8.330;2022-10-16T11:57:01;1.75;;;0.70;;
75768;SDS011;64379;48.888;8.330;2022-10-16T11:59:40;3.58;;;1.02;;
75768;SDS011;64379;48.888;8.330;2022-10-16T12:08:10;2.90;;;1.00;;
75768;SDS011;64379;48.888;8.330;2022-10-16T12:10:38;2.03;;;1.00;;
75768;SDS011;64379;48.888;8.330;2022-10-16T12:18:32;7.00;;;1.02;;
75768;SDS011;64379;48.888;8.330;2022-10-16T12:20:58;4.55;;;0.90;;
75768;SDS011;64379;48.888;8.330;2022-10-16T12:23:30;3.85;;;1.10;;
75768;SDS011;64379;48.888;8.330;2022-10-16T12:25:59;1.58;;;0.90;;
75768;SDS011;64379;48.888;8.330;2022-10-16T12:28:28;5.25;;;1.38;;
75768;SDS011;64379;48.888;8.330;2022-10-16T12:30:57;3.42;;;1.02;;
75768;SDS011;64379;48.888;8.330;2022-10-16T12:35:58;2.00;;;0.90;;
75768;SDS011;64379;48.888;8.330;2022-10-16T12:38:27;5.20;;;1.20;;
75768;SDS011;64379;48.888;8.330;2022-10-16T12:41:10;2.55;;;1.00;;
75768;SDS011;64379;48.888;8.330;2022-10-16T12:48:40;2.63;;;1.10;;
75768;SDS011;64379;48.888;8.330;2022-10-16T12:54:03;3.13;;;1.17;;
75768;SDS011;64379;48.888;8.330;2022-10-16T12:59:32;4.57;;;1.10;;
75768;SDS011;64379;48.888;8.330;2022-10-16T13:05:46;1.40;;;0.90;;
75768;SDS011;64379;48.888;8.330;2022-10-16T13:10:34;2.28;;;1.05;;
75768;SDS011;64379;48.888;8.330;2022-10-16T13:16:00;12.50;;;1.50;;
75768;SDS011;64379;48.888;8.330;2022-10-16T13:21:10;2.20;;;1.00;;
75768;SDS011;64379;48.888;8.330;2022-10-16T13:29:20;4.55;;;1.00;;
75768;SDS011;64379;48.888;8.330;2022-10-16T13:31:46;4.40;;;1.13;;
75768;SDS011;64379;48.888;8.330;2022-10-16T13:34:19;2.90;;;1.02;;
75768;SDS011;64379;48.888;8.330;2022-10-16T13:36:48;1.90;;;0.85;;
75768;SDS011;64379;48.888;8.330;2022-10-16T13:42:00;3.17;;;1.20;;
75768;SDS011;64379;48.888;8.330;2022-10-16T13:46:59;1.98;;;1.00;;
75768;SDS011;64379;48.888;8.330;2022-10-16T13:49:26;3.33;;;1.10;;
75768;SDS011;64379;48.888;8.330;2022-10-16T13:51:55;6.10;;;1.40;;
75768;SDS011;64379;48.888;8.330;2022-10-16T13:54:25;6.60;;;1.10;;
75768;SDS011;64379;48.888;8.330;2022-10-16T13:56:53;3.80;;;1.10;;
75768;SDS011;64379;48.888;8.330;2022-10-16T13:59:23;3.97;;;1.27;;
75768;SDS011;64379;48.888;8.330;2022-10-16T14:01:51;3.20;;;1.10;;
75768;SDS011;64379;48.888;8.330;2022-10-16T14:04:19;5.90;;;1.30;;
75768;SDS011;64379;48.888;8.330;2022-10-16T14:06:46;3.70;;;1.05;;
75768;SDS011;64379;48.888;8.330;2022-10-16T14:09:25;3.70;;;1.08;;
75768;SDS011;64379;48.888;8.330;2022-10-16T14:11:54;4.53;;;1.25;;
75768;SDS011;64379;48.888;8.330;2022-10-16T14:14:26;2.30;;;1.17;;
75768;SDS011;64379;48.888;8.330;2022-10-16T14:16:57;3.72;;;1.20;;
75768;SDS011;64379;48.888;8.330;2022-10-16T14:19:27;4.75;;;1.20;;
75768;SDS011;64379;48.888;8.330;2022-10-16T14:21:54;2.65;;;1.10;;
75768;SDS011;64379;48.888;8.330;2022-10-16T14:24:25;3.22;;;1.13;;
75768;SDS011;64379;48.888;8.330;2022-10-16T14:26:56;7.55;;;1.17;;
75768;SDS011;64379;48.888;8.330;2022-10-16T14:29:22;6.18;;;1.05;;
75768;SDS011;64379;48.888;8.330;2022-10-16T14:31:56;4.93;;;1.13;;
75768;SDS011;64379;48.888;8.330;2022-10-16T14:34:36;3.78;;;1.10;;
75768;SDS011;64379;48.888;8.330;2022-10-16T14:39:50;5.30;;;1.30;;
75768;SDS011;64379;48.888;8.330;2022-10-16T14:42:16;2.25;;;1.10;;
75768;SDS011;64379;48.888;8.330;2022-10-16T14:44:44;3.72;;;1.17;;
75768;SDS011;64379;48.888;8.330;2022-10-16T14:47:13;3.45;;;1.20;;
75768;SDS011;64379;48.888;8.330;2022-10-16T14:49:41;3.17;;;1.20;;
75768;SDS011;64379;48.888;8.330;2022-10-16T14:52:10;5.03;;;1.00;;
75768;SDS011;64379;48.888;8.330;2022-10-16T14:54:37;3.30;;;1.30;;
75768;SDS011;64379;48.888;8.330;2022-10-16T14:57:03;2.28;;;1.10;;
75768;SDS011;64379;48.888;8.330;2022-10-16T14:59:37;2.08;;;1.15;;
75768;SDS011;64379;48.888;8.330;2022-10-16T15:04:47;5.07;;;1.27;;
75768;SDS011;64379;48.888;8.330;2022-10-16T15:07:13;3.58;;;1.13;;
75768;SDS011;64379;48.888;8.330;2022-10-16T15:09:38;3.42;;;1.15;;
75768;SDS011;64379;48.888;8.330;2022-10-16T15:12:04;3.47;;;1.15;;
75768;SDS011;64379;48.888;8.330;2022-10-16T15:14:30;2.78;;;1.27;;
75768;SDS011;64379;48.888;8.330;2022-10-16T15:16:58;2.13;;;1.00;;
75768;SDS011;64379;48.888;8.330;2022-10-16T15:19:23;4.00;;;1.27;;
75768;SDS011;64379;48.888;8.330;2022-10-16T15:21:49;5.18;;;1.30;;
75768;SDS011;64379;48.888;8.330;2022-10-16T15:24:14;5.90;;;1.13;;
75768;SDS011;64379;48.888;8.330;2022-10-16T15:26:40;6.10;;;1.35;;
75768;SDS011;64379;48.888;8.330;2022-10-16T15:29:06;5.40;;;1.25;;
75768;SDS011;64379;48.888;8.330;2022-10-16T15:31:32;2.05;;;1.13;;
75768;SDS011;64379;48.888;8.330;2022-10-16T15:33:58;2.53;;;1.30;;
75768;SDS011;64379;48.888;8.330;2022-10-16T15:36:29;11.52;;;1.60;;
75768;SDS011;64379;48.888;8.330;2022-10-16T15:38:58;2.50;;;1.23;;
75768;SDS011;64379;48.888;8.330;2022-10-16T15:41:25;3.33;;;1.15;;
75768;SDS011;64379;48.888;8.330;2022-10-16T15:43:51;3.92;;;1.40;;
75768;SDS011;64379;48.888;8.330;2022-10-16T15:46:18;6.22;;;1.13;;
75768;SDS011;64379;48.888;8.330;2022-10-16T15:51:11;2.20;;;1.20;;
75768;SDS011;64379;48.888;8.330;2022-10-16T15:53:37;3.53;;;1.50;;
75768;SDS011;64379;48.888;8.330;2022-10-16T15:56:03;5.53;;;1.30;;
75768;SDS011;64379;48.888;8.330;2022-10-16T15:58:29;5.10;;;1.20;;
75768;SDS011;64379;48.888;8.330;2022-10-16T16:00:55;4.78;;;1.30;;
75768;SDS011;64379;48.888;8.330;2022-10-16T16:03:22;2.58;;;1.30;;
75768;SDS011;64379;48.888;8.330;2022-10-16T16:05:47;3.90;;;1.60;;
75768;SDS011;64379;48.888;8.330;2022-10-16T16:08:13;8.70;;;1.67;;
75768;SDS011;64379;48.888;8.330;2022-10-16T16:10:39;5.22;;;1.10;;
75768;SDS011;64379;48.888;8.330;2022-10-16T16:13:04;2.92;;;1.25;;
75768;SDS011;64379;48.888;8.330;2022-10-16T16:15:30;17.48;;;2.20;;
75768;SDS011;64379;48.888;8.330;2022-10-16T16:17:55;9.32;;;1.88;;
75768;SDS011;64379;48.888;8.330;2022-10-16T16:20:21;6.43;;;2.00;;
75768;SDS011;64379;48.888;8.330;2022-10-16T16:22:47;6.60;;;2.25;;
75768;SDS011;64379;48.888;8.330;2022-10-16T16:25:12;6.72;;;2.15;;
75768;SDS011;64379;48.888;8.330;2022-10-16T16:27:38;6.22;;;2.25;;
75768;SDS011;64379;48.888;8.330;2022-10-16T16:30:05;9.20;;;2.42;;
75768;SDS011;64379;48.888;8.330;2022-10-16T16:32:32;8.25;;;2.30;;
75768;SDS011;64379;48.888;8.330;2022-10-16T16:34:58;8.60;;;2.20;;
75768;SDS011;64379;48.888;8.330;2022-10-16T16:37:24;10.98;;;2.47;;
75768;SDS011;64379;48.888;8.330;2022-10-16T16:39:52;13.70;;;2.92;;
75768;SDS011;64379;48.888;8.330;2022-10-16T16:42:19;11.38;;;2.60;;
75768;SDS011;64379;48.888;8.330;2022-10-16T16:44:44;11.20;;;3.13;;
75768;SDS011;64379;48.888;8.330;2022-10-16T16:47:12;9.07;;;3.22;;
75768;SDS011;64379;48.888;8.330;2022-10-16T16:49:37;11.98;;;3.35;;
75768;SDS011;64379;48.888;8.330;2022-10-16T16:52:03;17.45;;;4.13;;
75768;SDS011;64379;48.888;8.330;2022-10-16T16:54:29;11.68;;;3.92;;
75768;SDS011;64379;48.888;8.330;2022-10-16T16:56:54;15.32;;;3.78;;
75768;SDS011;64379;48.888;8.330;2022-10-16T16:59:20;15.23;;;3.85;;
75768;SDS011;64379;48.888;8.330;2022-10-16T17:01:46;13.27;;;4.20;;
75768;SDS011;64379;48.888;8.330;2022-10-16T17:04:13;13.07;;;4.28;;
75768;SDS011;64379;48.888;8.330;2022-10-16T17:06:40;11.48;;;4.60;;
75768;SDS011;64379;48.888;8.330;2022-10-16T17:09:06;13.43;;;5.30;;
75768;SDS011;64379;48.888;8.330;2022-10-16T17:11:32;14.43;;;5.82;;
75768;SDS011;64379;48.888;8.330;2022-10-16T17:13:58;19.40;;;5.38;;
75768;SDS011;64379;48.888;8.330;2022-10-16T17:16:32;13.00;;;5.00;;